Time;durP1;ratioP1;P1;durP2;ratioP2;P2;SDS_P1;SDS_P2;PMS_P1;PMS_P2;Temp;Humidity;BMP_temperature;BMP_pressure;BME280_temperature;BME280_humidity;BME280_pressure;Samples;Min_cycle;Max_cycle;Signal;HPM_P1;HPM_P2
2022/08/26 00:00:57;;;;;;;31.90;21.75;;;21.50;99.90;;;;;;5014942;28;20036;-64
2022/08/26 00:03:22;;;;;;;;;;;21.50;99.90;;;;;;5033190;28;19913;-65
2022/08/26 00:05:49;;;;;;;;;;;21.50;99.90;;;;;;5018407;28;19913;-65
2022/08/26 00:08:16;;;;;;;;;;;21.60;99.90;;;;;;5036981;28;19955;-65
2022/08/26 00:10:42;;;;;;;;;;;21.50;99.90;;;;;;5036924;28;19987;-66
2022/08/26 00:13:09;;;;;;;;;;;21.50;99.90;;;;;;5019132;28;19913;-64
2022/08/26 00:15:35;;;;;;;;;;;21.50;99.90;;;;;;5019017;28;19916;-65
2022/08/26 00:18:01;;;;;;;;;;;21.50;99.90;;;;;;5037119;28;19932;-65
2022/08/26 00:20:28;;;;;;;;;;;21.50;99.90;;;;;;5037102;28;20341;-64
2022/08/26 00:22:54;;;;;;;;;;;21.50;99.90;;;;;;5036490;28;19917;-65
2022/08/26 00:25:20;;;;;;;;;;;21.40;99.90;;;;;;5036672;28;19971;-63
2022/08/26 00:27:46;;;;;;;29.13;22.48;;;21.40;99.90;;;;;;5036437;28;19916;-65
2022/08/26 00:30:23;;;;;;;28.00;22.30;;;21.40;99.90;;;;;;5036109;28;20032;-65
2022/08/26 00:32:49;;;;;;;;;;;21.30;99.90;;;;;;5036386;28;20029;-65
2022/08/26 00:35:15;;;;;;;;;;;21.30;99.90;;;;;;5004085;28;19925;-66
2022/08/26 00:37:41;;;;;;;;;;;21.30;99.90;;;;;;4999092;28;19921;-65
2022/08/26 00:40:15;;;;;;;28.60;22.58;;;21.30;99.90;;;;;;5016286;28;20278;-64
2022/08/26 00:42:41;;;;;;;26.85;22.83;;;21.30;99.90;;;;;;5016250;28;20049;-65
2022/08/26 00:45:07;;;;;;;30.50;22.05;;;21.30;99.90;;;;;;5016028;28;20463;-65
2022/08/26 00:47:42;;;;;;;31.92;23.52;;;21.30;99.90;;;;;;5016078;28;20030;-64
2022/08/26 00:50:13;;;;;;;24.80;21.52;;;21.30;99.90;;;;;;4998302;28;20113;-66
2022/08/26 00:52:40;;;;;;;33.23;21.60;;;21.30;99.90;;;;;;5016104;28;20152;-64
2022/08/26 00:55:08;;;;;;;;;;;21.30;99.90;;;;;;4998606;28;20123;-65
2022/08/26 00:57:34;;;;;;;;;;;21.30;99.90;;;;;;4998416;28;20018;-65
2022/08/26 01:00:03;;;;;;;;;;;21.30;99.90;;;;;;4998640;28;20425;-66
2022/08/26 01:02:28;;;;;;;38.65;22.55;;;21.30;99.90;;;;;;5015791;28;19988;-65
2022/08/26 01:04:58;;;;;;;28.08;21.98;;;21.20;99.90;;;;;;5015432;28;20156;-64
2022/08/26 01:07:26;;;;;;;30.05;22.75;;;21.20;99.90;;;;;;5015658;28;20030;-65
2022/08/26 01:09:52;;;;;;;29.60;21.65;;;21.20;99.90;;;;;;4998003;28;20056;-64
2022/08/26 01:12:18;;;;;;;28.15;22.83;;;21.20;99.90;;;;;;4997953;28;20037;-64
2022/08/26 01:14:46;;;;;;;29.30;22.83;;;21.20;99.90;;;;;;5015214;28;20062;-66
2022/08/26 01:17:12;;;;;;;27.63;23.33;;;21.10;99.90;;;;;;5014605;28;20026;-64
2022/08/26 01:19:47;;;;;;;29.98;22.67;;;21.10;99.90;;;;;;5015478;28;20040;-65
2022/08/26 01:22:18;;;;;;;30.23;22.90;;;21.10;99.90;;;;;;5015503;28;20069;-65
2022/08/26 01:24:46;;;;;;;26.90;22.38;;;21.00;99.90;;;;;;5015743;28;20069;-66
2022/08/26 01:27:15;;;;;;;34.35;23.52;;;21.10;99.90;;;;;;4997711;28;20033;-65
2022/08/26 01:29:43;;;;;;;31.10;23.25;;;21.00;99.90;;;;;;5015260;28;20096;-65
2022/08/26 01:32:13;;;;;;;32.95;24.25;;;21.00;99.90;;;;;;5015354;28;20069;-64
2022/08/26 01:34:39;;;;;;;38.05;23.25;;;21.10;99.90;;;;;;5006539;28;20232;-64
2022/08/26 01:37:11;;;;;;;27.55;22.48;;;21.10;99.90;;;;;;5034870;28;20143;-65
2022/08/26 01:39:38;;;;;;;26.98;21.90;;;21.10;99.90;;;;;;5034645;28;20459;-65
2022/08/26 01:42:07;;;;;;;29.98;22.77;;;21.10;99.90;;;;;;5034814;28;20029;-64
2022/08/26 01:45:00;;;;;;;42.58;23.48;;;21.10;99.90;;;;;;5034514;28;20022;-65
2022/08/26 01:47:29;;;;;;;27.73;23.85;;;21.10;99.90;;;;;;5020240;28;20528;-65
2022/08/26 01:49:58;;;;;;;29.15;24.02;;;21.10;99.90;;;;;;5016891;28;20033;-66
2022/08/26 01:52:26;;;;;;;;;;;21.00;99.90;;;;;;5034989;28;20087;-63
2022/08/26 01:54:52;;;;;;;;;;;21.00;99.90;;;;;;5035029;28;19948;-64
2022/08/26 01:57:20;;;;;;;;;;;21.00;99.90;;;;;;5034973;28;19909;-65
2022/08/26 01:59:46;;;;;;;;;;;21.00;99.90;;;;;;5017139;28;19939;-65
2022/08/26 02:02:12;;;;;;;;;;;20.90;99.90;;;;;;5034880;28;19909;-65
2022/08/26 02:04:58;;;;;;;;;;;21.00;99.90;;;;;;5016981;28;19916;-65
2022/08/26 02:07:24;;;;;;;;;;;21.00;99.90;;;;;;5033720;28;19920;-65
2022/08/26 02:09:50;;;;;;;;;;;21.00;99.90;;;;;;5034711;28;19913;-65
2022/08/26 02:12:17;;;;;;;;;;;20.90;99.90;;;;;;5034692;28;19919;-65
2022/08/26 02:14:48;;;;;;;;;;;21.00;99.90;;;;;;5034621;28;19913;-65
2022/08/26 02:17:15;;;;;;;;;;;20.90;99.90;;;;;;5034636;28;19913;-65
2022/08/26 02:19:44;;;;;;;;;;;20.90;99.90;;;;;;5034557;28;20386;-66
2022/08/26 02:22:12;;;;;;;;;;;20.90;99.90;;;;;;5034494;28;19909;-66
2022/08/26 02:24:50;;;;;;;;;;;20.90;99.90;;;;;;5034148;28;20324;-64
2022/08/26 02:27:18;;;;;;;;;;;20.90;99.90;;;;;;5034276;28;19909;-65
2022/08/26 02:29:45;;;;;;;;;;;20.80;99.90;;;;;;5034346;28;19921;-65
2022/08/26 02:32:11;;;;;;;;;;;20.80;99.90;;;;;;5034602;28;19916;-64
2022/08/26 02:34:37;;;;;;;;;;;20.80;99.90;;;;;;5015989;28;19971;-65
2022/08/26 02:37:04;;;;;;;;;;;20.90;99.90;;;;;;5016530;28;19909;-65
2022/08/26 02:39:30;;;;;;;;;;;20.80;99.90;;;;;;5034524;28;20327;-64
2022/08/26 02:41:57;;;;;;;;;;;20.80;99.90;;;;;;5016392;28;19995;-64
2022/08/26 02:44:23;;;;;;;;;;;20.80;99.90;;;;;;5034105;28;19954;-64
2022/08/26 02:46:48;;;;;;;;;;;20.80;99.90;;;;;;5034060;28;20004;-64
2022/08/26 02:49:15;;;;;;;;;;;20.80;99.90;;;;;;5034189;28;19925;-65
2022/08/26 02:51:40;;;;;;;;;;;20.80;99.90;;;;;;5034079;28;19920;-64
2022/08/26 02:54:06;;;;;;;;;;;20.80;99.90;;;;;;5033928;28;20270;-65
2022/08/26 02:56:32;;;;;;;;;;;20.80;99.90;;;;;;5033896;28;19957;-64
2022/08/26 02:58:58;;;;;;;;;;;20.80;99.90;;;;;;5033875;28;19916;-64
2022/08/26 03:01:25;;;;;;;;;;;20.80;99.90;;;;;;5033872;28;19913;-65
2022/08/26 03:03:52;;;;;;;;;;;20.80;99.90;;;;;;5033833;28;19961;-64
2022/08/26 03:06:17;;;;;;;;;;;20.80;99.90;;;;;;5033753;28;19909;-64
2022/08/26 03:08:43;;;;;;;;;;;20.80;99.90;;;;;;5033705;28;19920;-64
2022/08/26 03:11:10;;;;;;;;;;;20.80;99.90;;;;;;5033666;28;19936;-64
2022/08/26 03:13:36;;;;;;;;;;;20.80;99.90;;;;;;5033676;28;19913;-65
2022/08/26 03:16:02;;;;;;;;;;;20.80;99.90;;;;;;5015819;28;20478;-64
2022/08/26 03:18:28;;;;;;;;;;;20.80;99.90;;;;;;5033360;28;19916;-65
2022/08/26 03:20:54;;;;;;;;;;;20.80;99.90;;;;;;5015873;28;20309;-65
2022/08/26 03:23:19;;;;;;;;;;;20.70;99.90;;;;;;5033586;28;20306;-64
2022/08/26 03:25:51;;;;;;;;;;;20.70;99.90;;;;;;5016097;28;20314;-65
2022/08/26 03:28:17;;;;;;;;;;;20.70;99.90;;;;;;5033542;28;19913;-65
2022/08/26 03:30:44;;;;;;;;;;;20.70;99.90;;;;;;5015760;28;19951;-65
2022/08/26 03:33:10;;;;;;;;;;;20.70;99.90;;;;;;5033470;28;19957;-64
2022/08/26 03:35:36;;;;;;;;;;;20.70;99.90;;;;;;5032965;28;19956;-65
2022/08/26 03:38:03;;;;;;;;;;;20.70;99.90;;;;;;5033369;28;19964;-65
2022/08/26 03:40:32;;;;;;;;;;;20.70;99.90;;;;;;5018434;28;20293;-64
2022/08/26 03:42:58;;;;;;;;;;;20.80;99.90;;;;;;5037511;28;19913;-65
2022/08/26 03:45:24;;;;;;;;;;;20.80;99.90;;;;;;5037187;28;20008;-64
2022/08/26 03:47:50;;;;;;;;;;;20.80;99.90;;;;;;5037122;28;19940;-64
2022/08/26 03:50:17;;;;;;;;;;;20.90;99.90;;;;;;5019524;28;19913;-65
2022/08/26 03:52:44;;;;;;;;;;;20.90;99.90;;;;;;5037366;28;19913;-64
2022/08/26 03:55:10;;;;;;;;;;;20.80;99.90;;;;;;5037244;28;19920;-64
2022/08/26 03:57:35;;;;;;;;;;;20.80;99.90;;;;;;5037207;28;20273;-65
2022/08/26 04:00:02;;;;;;;;;;;20.80;99.90;;;;;;5037170;28;19948;-64
2022/08/26 04:02:28;;;;;;;;;;;20.80;99.90;;;;;;5037203;28;19916;-64
2022/08/26 04:04:53;;;;;;;;;;;20.80;99.90;;;;;;5019272;28;19913;-65
2022/08/26 04:07:19;;;;;;;;;;;20.80;99.90;;;;;;5037366;28;19909;-65
2022/08/26 04:09:45;;;;;;;;;;;20.80;99.90;;;;;;5037130;28;19924;-65
2022/08/26 04:12:11;;;;;;;;;;;20.80;99.90;;;;;;5037003;28;20300;-65
2022/08/26 04:14:36;;;;;;;;;;;20.80;99.90;;;;;;5019075;28;19909;-64
2022/08/26 04:17:03;;;;;;;;;;;20.80;99.90;;;;;;5036855;28;19952;-64
2022/08/26 04:19:30;;;;;;;;;;;20.80;99.90;;;;;;5036843;28;19956;-65
2022/08/26 04:21:55;;;;;;;;;;;20.80;99.90;;;;;;5019031;28;20336;-64
2022/08/26 04:24:22;;;;;;;;;;;20.80;99.90;;;;;;5018928;28;19959;-65
2022/08/26 04:26:49;;;;;;;;;;;20.80;99.90;;;;;;5036668;28;19909;-65
2022/08/26 04:29:17;;;;;;;;;;;20.80;99.90;;;;;;5036522;28;19913;-65
2022/08/26 04:31:43;;;;;;;;;;;20.80;99.90;;;;;;5036400;28;20443;-65
2022/08/26 04:34:09;;;;;;;;;;;20.80;99.90;;;;;;5013180;28;19921;-64
2022/08/26 04:36:34;;;;;;;;;;;20.80;99.90;;;;;;4999157;28;19963;-65
2022/08/26 04:39:01;;;;;;;;;;;20.90;99.90;;;;;;5016695;28;19913;-64
2022/08/26 04:41:27;;;;;;;;;;;20.90;99.90;;;;;;4999081;28;19916;-65
2022/08/26 04:43:53;;;;;;;;;;;21.00;99.90;;;;;;4998963;28;19916;-65
2022/08/26 04:46:21;;;;;;;;;;;21.00;99.90;;;;;;5016518;28;19913;-64
2022/08/26 04:48:47;;;;;;;;;;;21.00;99.90;;;;;;4998880;28;19916;-65
2022/08/26 04:51:13;;;;;;;;;;;21.10;99.90;;;;;;5015128;28;19918;-65
2022/08/26 04:53:39;;;;;;;;;;;21.10;99.90;;;;;;5016464;28;19921;-64
2022/08/26 04:56:05;;;;;;;;;;;21.10;99.90;;;;;;5016376;28;19996;-64
2022/08/26 04:58:30;;;;;;;;;;;21.10;99.90;;;;;;5016334;28;19915;-64
2022/08/26 05:00:57;;;;;;;;;;;21.20;99.90;;;;;;5015934;28;20004;-64
2022/08/26 05:03:23;;;;;;;;;;;21.20;99.90;;;;;;5016254;28;19909;-64
2022/08/26 05:05:49;;;;;;;;;;;21.30;99.90;;;;;;5016173;28;19917;-65
2022/08/26 05:08:16;;;;;;;;;;;21.30;99.90;;;;;;5016157;28;19921;-64
2022/08/26 05:10:43;;;;;;;;;;;21.40;99.90;;;;;;5016083;28;19914;-64
2022/08/26 05:13:09;;;;;;;;;;;21.50;99.90;;;;;;5016436;28;19913;-64
2022/08/26 05:15:35;;;;;;;;;;;21.60;99.90;;;;;;5016089;28;19920;-65
2022/08/26 05:18:05;;;;;;;;;;;21.70;99.90;;;;;;5015983;28;19913;-64
2022/08/26 05:20:33;;;;;;;;;;;21.70;99.90;;;;;;4998257;28;19914;-65
2022/08/26 05:22:59;;;;;;;;;;;21.80;99.90;;;;;;5015909;28;19909;-65
2022/08/26 05:25:26;;;;;;;;;;;21.80;99.90;;;;;;5015512;28;20332;-64
2022/08/26 05:27:51;;;;;;;;;;;21.90;99.90;;;;;;4998209;28;20288;-65
2022/08/26 05:30:17;;;;;;;;;;;22.00;99.90;;;;;;5015643;28;19913;-64
2022/08/26 05:32:43;;;;;;;;;;;22.10;99.90;;;;;;5015789;28;20362;-65
2022/08/26 05:35:09;;;;;;;;;;;22.10;99.90;;;;;;5028539;28;20324;-66
2022/08/26 05:37:35;;;;;;;;;;;22.20;99.90;;;;;;5035628;28;20312;-65
2022/08/26 05:40:03;;;;;;;;;;;22.30;99.90;;;;;;5035280;28;19964;-64
2022/08/26 05:42:28;;;;;;;;;;;22.30;99.90;;;;;;5035190;28;19909;-64
2022/08/26 05:44:54;;;;;;;;;;;22.40;99.90;;;;;;5017363;28;19914;-65
2022/08/26 05:47:19;;;;;;;;;;;22.40;99.90;;;;;;5035140;28;19909;-64
2022/08/26 05:49:45;;;;;;;;;;;22.50;99.90;;;;;;5017132;28;19913;-65
2022/08/26 05:52:11;;;;;;;;;;;22.50;99.90;;;;;;5017327;28;19964;-66
2022/08/26 05:54:38;;;;;;;;;;;22.60;99.90;;;;;;5034987;28;20373;-65
2022/08/26 05:57:03;;;;;;;;;;;22.60;99.90;;;;;;5034947;28;19920;-65
2022/08/26 05:59:29;;;;;;;;;;;22.70;99.90;;;;;;5035208;28;20042;-65
2022/08/26 06:01:55;;;;;;;;;;;22.70;99.90;;;;;;5016613;28;19909;-65
2022/08/26 06:04:21;;;;;;;;;;;22.80;99.90;;;;;;5034814;28;19913;-65
2022/08/26 06:06:47;;;;;;;;;;;22.80;99.90;;;;;;5035040;28;19909;-65
2022/08/26 06:09:13;;;;;;;;;;;22.90;99.90;;;;;;5016797;28;20306;-65
2022/08/26 06:11:41;;;;;;;;;;;22.90;99.90;;;;;;5034651;28;19916;-65
2022/08/26 06:14:07;;;;;;;;;;;23.00;99.90;;;;;;5016798;28;20362;-65
2022/08/26 06:16:35;;;;;;;;;;;23.10;99.90;;;;;;5034544;28;19909;-63
2022/08/26 06:19:01;;;;;;;;;;;23.20;99.90;;;;;;5034538;28;19909;-65
2022/08/26 06:21:31;;;;;;;;;;;23.30;99.90;;;;;;5016749;28;20278;-65
2022/08/26 06:26:47;;;;;;;;;;;23.40;99.90;;;;;;5034415;28;19915;-64
2022/08/26 06:29:13;;;;;;;;;;;23.50;99.90;;;;;;5016394;28;20370;-65
2022/08/26 06:31:39;;;;;;;;;;;23.60;99.90;;;;;;5016545;28;19920;-64
2022/08/26 06:34:05;;;;;;;;;;;23.70;99.90;;;;;;5033992;28;19925;-65
2022/08/26 06:36:31;;;;;;;;;;;23.80;99.90;;;;;;5034257;28;19917;-64
2022/08/26 06:39:04;;;;;;;;;;;23.90;99.90;;;;;;5016137;28;19959;-64
2022/08/26 06:41:32;;;;;;;;;;;24.00;99.90;;;;;;5033947;28;19909;-65
2022/08/26 06:43:59;;;;;;;;;;;24.00;99.90;;;;;;5034082;28;19956;-64
2022/08/26 06:46:25;;;;;;;;;;;24.00;99.90;;;;;;5034006;28;19913;-65
2022/08/26 06:48:52;;;;;;;;;;;24.10;99.90;;;;;;5033915;28;20344;-65
2022/08/26 06:51:22;;;;;;;;;;;24.20;99.90;;;;;;5027534;28;19952;-66
2022/08/26 06:53:48;;;;;;;;;;;24.20;99.90;;;;;;5025058;28;19920;-66
2022/08/26 06:56:15;;;;;;;;;;;24.30;99.90;;;;;;5033349;28;19913;-64
2022/08/26 06:58:41;;;;;;;;;;;24.40;99.90;;;;;;5033653;28;19916;-65
2022/08/26 07:01:14;;;;;;;;;;;24.50;99.90;;;;;;5033468;28;19913;-65
2022/08/26 07:03:40;;;;;;;;;;;24.60;99.90;;;;;;5015836;28;19948;-64
2022/08/26 07:06:06;;;;;;;;;;;24.60;99.90;;;;;;5033458;28;20000;-65
2022/08/26 07:08:31;;;;;;;;;;;24.70;99.90;;;;;;5033311;28;19945;-66
2022/08/26 07:10:57;;;;;;;;;;;24.70;99.90;;;;;;5033544;28;19916;-64
2022/08/26 07:13:23;;;;;;;;;;;24.80;99.90;;;;;;5033325;28;19928;-64
2022/08/26 07:15:48;;;;;;;;;;;24.80;99.90;;;;;;5032795;28;19999;-65
2022/08/26 07:18:15;;;;;;;;;;;24.90;99.90;;;;;;5015258;28;19920;-65
2022/08/26 07:20:42;;;;;;;;;;;25.00;99.90;;;;;;5015150;28;19952;-65
2022/08/26 07:23:08;;;;;;;;;;;25.00;99.90;;;;;;5015538;28;19909;-65
2022/08/26 07:25:36;;;;;;;;;;;25.00;99.90;;;;;;5032780;28;20357;-65
2022/08/26 07:28:02;;;;;;;;;;;25.20;99.90;;;;;;5033386;28;19963;-64
2022/08/26 07:30:28;;;;;;;;;;;25.30;99.90;;;;;;5033121;28;19964;-64
2022/08/26 07:32:55;;;;;;;;;;;25.30;99.90;;;;;;5033198;28;20343;-64
2022/08/26 07:35:20;;;;;;;;;;;25.40;99.90;;;;;;5032207;28;20329;-65
2022/08/26 07:37:46;;;;;;;;;;;25.40;99.90;;;;;;5033471;28;19917;-64
2022/08/26 07:40:12;;;;;;;;;;;25.50;99.90;;;;;;5031607;28;19909;-64
2022/08/26 07:42:38;;;;;;;;;;;25.70;99.90;;;;;;5032441;28;19917;-65
2022/08/26 07:45:04;;;;;;;;;;;25.80;99.90;;;;;;5015284;28;19913;-65
2022/08/26 07:47:30;;;;;;;;;;;25.90;99.90;;;;;;5032972;28;19952;-65
2022/08/26 07:49:56;;;;;;;;;;;26.00;99.90;;;;;;5033018;28;19952;-64
2022/08/26 07:52:22;;;;;;;;;;;26.20;99.90;;;;;;5033197;28;19917;-65
2022/08/26 07:54:48;;;;;;;;;;;26.40;99.90;;;;;;5033042;28;19979;-64
2022/08/26 07:57:13;;;;;;;;;;;26.50;99.90;;;;;;5032659;28;20373;-65
2022/08/26 07:59:39;;;;;;;;;;;26.50;99.90;;;;;;5015166;28;19909;-66
2022/08/26 08:02:04;;;;;;;;;;;26.50;99.90;;;;;;5032478;28;19951;-64
2022/08/26 08:04:30;;;;;;;;;;;26.70;99.90;;;;;;5015163;28;19909;-65
2022/08/26 08:06:56;;;;;;;;;;;26.70;99.90;;;;;;5032790;28;19917;-64
2022/08/26 08:09:22;;;;;;;;;;;26.80;99.90;;;;;;5047991;28;20404;-64
2022/08/26 08:11:48;;;;;;;;;;;27.00;99.90;;;;;;5032699;28;19913;-64
2022/08/26 08:14:14;;;;;;;;;;;27.30;99.90;;;;;;5015303;28;19977;-64
2022/08/26 08:16:40;;;;;;;;;;;27.20;99.90;;;;;;5015096;28;19916;-65
2022/08/26 08:19:15;;;;;;;;;;;;;;;;;;5032806;28;19916;-65
2022/08/26 08:21:43;;;;;;;;;;;27.40;99.90;;;;;;5032714;28;19949;-63
2022/08/26 08:24:10;;;;;;;;;;;27.60;99.90;;;;;;5032720;28;19909;-65
2022/08/26 08:26:36;;;;;;;;;;;;;;;;;;5035456;28;19959;-64
2022/08/26 08:29:02;;;;;;;;;;;27.80;99.90;;;;;;5036483;28;20023;-64
2022/08/26 08:31:29;;;;;;;;;;;28.00;99.90;;;;;;5036404;28;20394;-67
2022/08/26 08:33:55;;;;;;;;;;;28.10;99.90;;;;;;5035993;28;20381;-64
2022/08/26 08:36:21;;;;;;;;;;;28.00;99.90;;;;;;5036493;28;19916;-69
2022/08/26 08:38:47;;;;;;;;;;;28.20;99.90;;;;;;5026570;28;19916;-67
2022/08/26 08:41:17;;;;;;;;;;;28.10;99.90;;;;;;5035501;28;20020;-69
2022/08/26 08:43:43;;;;;;;;;;;28.40;99.90;;;;;;5036214;28;19948;-68
2022/08/26 08:46:11;;;;;;;;;;;28.50;99.90;;;;;;5036139;28;19920;-68
2022/08/26 08:48:41;;;;;;;;;;;28.50;99.90;;;;;;5035389;28;20345;-68
2022/08/26 08:51:21;;;;;;;;;;;28.70;99.90;;;;;;4998476;28;20357;-68
2022/08/26 08:53:48;;;;;;;;;;;28.70;99.90;;;;;;5015972;28;20285;-67
2022/08/26 08:56:23;;;;;;;;;;;28.80;99.90;;;;;;4998574;28;19909;-69
2022/08/26 08:58:51;;;;;;;;;;;28.90;99.90;;;;;;5016144;28;19909;-67
2022/08/26 09:01:23;;;;;;;;;;;29.00;99.90;;;;;;5016116;28;19989;-66
2022/08/26 09:04:04;;;;;;;;;;;29.00;99.90;;;;;;5016082;28;19910;-67
2022/08/26 09:06:29;;;;;;;;;;;29.30;99.90;;;;;;4998173;28;20325;-64
2022/08/26 09:08:56;;;;;;;;;;;29.30;99.90;;;;;;5016127;28;19957;-65
2022/08/26 09:11:21;;;;;;;;;;;29.50;99.90;;;;;;5015822;28;20313;-67
2022/08/26 09:13:49;;;;;;;;;;;29.40;99.90;;;;;;4998186;28;19910;-65
2022/08/26 09:16:18;;;;;;;;;;;29.60;99.90;;;;;;4998236;28;20286;-70
2022/08/26 09:19:04;;;;;;;;;;;29.70;99.90;;;;;;5015768;28;20366;-65
2022/08/26 09:21:30;;;;;;;;;;;29.70;99.90;;;;;;4997339;28;19917;-67
2022/08/26 09:23:56;;;;;;;;;;;29.70;99.90;;;;;;4997929;28;20281;-66
2022/08/26 09:26:39;;;;;;;;;;;29.80;99.90;;;;;;5015771;28;19909;-72
2022/08/26 09:29:22;;;;;;;;;;;29.70;99.90;;;;;;5014286;28;20330;-73
2022/08/26 09:31:49;;;;;;;;;;;30.00;99.90;;;;;;5015440;28;19921;-71
2022/08/26 09:34:15;;;;;;;;;;;30.30;99.90;;;;;;5013847;28;19925;-64
2022/08/26 09:36:45;;;;;;;;;;;30.50;99.90;;;;;;5014923;28;19909;-68
2022/08/26 09:39:24;;;;;;;;;;;30.40;99.90;;;;;;5015197;28;19909;-66
2022/08/26 09:42:08;;;;;;;;;;;30.70;99.90;;;;;;5015220;28;19917;-68
2022/08/26 09:44:50;;;;;;;;;;;30.80;99.90;;;;;;5025065;28;19956;-66
2022/08/26 09:47:19;;;;;;;;;;;31.00;99.90;;;;;;5032253;28;19997;-67
2022/08/26 09:49:55;;;;;;;;;;;31.00;99.90;;;;;;5033392;28;19921;-67
2022/08/26 09:52:22;;;;;;;;;;;31.10;99.90;;;;;;5033494;28;19909;-69
2022/08/26 09:55:08;;;;;;;;;;;31.40;99.90;;;;;;5013344;28;19959;-68
2022/08/26 09:57:42;;;;;;;;;;;31.50;99.90;;;;;;5020551;28;20004;-65
2022/08/26 10:00:22;;;;;;;;;;;31.40;99.90;;;;;;5034274;28;20007;-69
2022/08/26 10:02:48;;;;;;;;;;;31.50;99.90;;;;;;5034562;28;19913;-67
2022/08/26 10:05:16;;;;;;;;;;;31.60;99.90;;;;;;5034344;28;19967;-65
2022/08/26 10:07:49;;;;;;;15.98;8.15;;;31.70;99.90;;;;;;5034008;28;19916;-68
2022/08/26 10:10:31;;;;;;;15.18;7.22;;;31.80;99.90;;;;;;5034148;28;20073;-69
2022/08/26 10:13:02;;;;;;;13.77;7.43;;;32.10;99.90;;;;;;5033695;28;20053;-70
2022/08/26 10:15:43;;;;;;;11.82;7.93;;;32.20;99.90;;;;;;5033769;28;20025;-73
2022/08/26 10:18:23;;;;;;;15.32;6.95;;;32.30;99.90;;;;;;5015813;28;20385;-70
2022/08/26 10:21:14;;;;;;;9.85;6.65;;;32.40;99.90;;;;;;5016058;28;20031;-72
2022/08/26 10:23:45;;;;;;;;;;;32.50;99.90;;;;;;5034024;28;20029;-73
2022/08/26 10:26:18;;;;;;;12.20;7.20;;;32.50;99.90;;;;;;5016300;28;19905;-71
2022/08/26 10:29:05;;;;;;;;;;;33.00;99.90;;;;;;5034019;28;19959;-69
2022/08/26 10:31:38;;;;;;;;;;;33.10;99.90;;;;;;4999223;28;19936;-63
2022/08/26 10:34:03;;;;;;;;;;;33.60;99.90;;;;;;5013951;28;19964;-65
2022/08/26 10:36:50;;;;;;;;;;;34.20;99.90;;;;;;5014017;28;19909;-65
2022/08/26 10:39:19;;;;;;;;;;;34.20;99.90;;;;;;5014197;28;19909;-64
2022/08/26 10:41:46;;;;;;;;;;;34.90;99.90;;;;;;5014015;28;19916;-65
2022/08/26 10:44:13;;;;;;;;;;;35.20;99.90;;;;;;4996292;28;20353;-65
2022/08/26 10:46:43;;;;;;;;;;;35.80;99.90;;;;;;4996392;28;19905;-68
2022/08/26 10:49:13;;;;;;;14.85;7.50;;;35.90;99.90;;;;;;5013268;28;19913;-67
2022/08/26 10:51:46;;;;;;;15.10;7.57;;;36.20;99.90;;;;;;5016796;28;20033;-69
2022/08/26 10:54:21;;;;;;;14.52;7.13;;;36.40;99.90;;;;;;5033041;28;20255;-69
2022/08/26 10:57:09;;;;;;;15.45;7.60;;;36.40;97.80;;;;;;5033163;28;20477;-71
2022/08/26 11:01:40;;;;;;;12.48;7.18;;;36.60;97.50;;;;;;5015122;28;20033;-72
2022/08/26 11:02:51;;;;;;;23.75;7.25;;;37.30;95.30;;;;;;5032469;28;20033;-69
2022/08/26 11:05:22;;;;;;;19.33;7.78;;;37.80;94.70;;;;;;5014051;28;20036;-70
2022/08/26 11:07:54;;;;;;;17.38;6.50;;;38.40;94.10;;;;;;5014826;28;20025;-66
2022/08/26 11:10:21;;;;;;;23.38;7.72;;;39.00;93.50;;;;;;5032409;28;20504;-66
2022/08/26 11:12:49;;;;;;;15.13;6.50;;;38.30;92.20;;;;;;5032819;28;20033;-66
2022/08/26 11:15:20;;;;;;;20.00;7.40;;;38.60;91.50;;;;;;5032490;28;20040;-65
2022/08/26 11:17:46;;;;;;;13.67;6.57;;;39.20;90.70;;;;;;5032792;28;20029;-66
2022/08/26 11:20:21;;;;;;;14.00;5.55;;;39.60;91.20;;;;;;5032736;28;20025;-65
2022/08/26 11:22:48;;;;;;;16.60;5.50;;;39.20;86.70;;;;;;5015060;28;20126;-70
2022/08/26 11:25:19;;;;;;;12.15;5.55;;;39.80;85.20;;;;;;5032654;28;20108;-66
2022/08/26 11:27:48;;;;;;;13.60;6.25;;;39.60;83.90;;;;;;5031830;28;20033;-66
2022/08/26 11:30:18;;;;;;;12.63;5.47;;;39.60;84.80;;;;;;5032517;28;20069;-64
2022/08/26 11:32:51;;;;;;;15.02;5.60;;;39.80;81.40;;;;;;5031927;28;20030;-64
2022/08/26 11:35:20;;;;;;;;;;;41.00;81.00;;;;;;5014627;28;20187;-67
2022/08/26 11:37:54;;;;;;;11.80;5.80;;;41.00;81.10;;;;;;5032547;28;19912;-67
2022/08/26 11:40:21;;;;;;;20.67;6.35;;;41.10;78.10;;;;;;5014869;28;20041;-66
2022/08/26 11:42:53;;;;;;;18.92;6.05;;;40.90;80.40;;;;;;5029992;28;20365;-67
2022/08/26 11:45:31;;;;;;;19.08;6.22;;;40.40;80.20;;;;;;5012782;28;20482;-68
2022/08/26 11:47:57;;;;;;;14.52;5.95;;;40.10;79.10;;;;;;5012788;28;20033;-69
2022/08/26 11:50:26;;;;;;;20.75;6.57;;;41.20;76.80;;;;;;5011421;28;20034;-68
2022/08/26 11:53:05;;;;;;;13.88;5.22;;;41.40;77.30;;;;;;5011351;28;20092;-67
2022/08/26 11:55:34;;;;;;;17.75;5.32;;;40.70;73.90;;;;;;5012845;28;20039;-68
2022/08/26 11:58:03;;;;;;;13.20;5.00;;;40.70;73.90;;;;;;5012299;28;20553;-67
2022/08/26 12:00:38;;;;;;;20.85;5.25;;;41.00;76.00;;;;;;5013502;28;20033;-68
2022/08/26 12:03:07;;;;;;;14.60;4.65;;;41.70;73.20;;;;;;5016707;28;20029;-70
2022/08/26 12:05:42;;;;;;;16.35;4.97;;;;;;;;;;5016605;28;20471;-71
2022/08/26 12:08:12;;;;;;;18.27;5.43;;;42.50;96.20;;;;;;5016648;28;20021;-71
2022/08/26 12:10:39;;;;;;;21.75;5.15;;;40.30;88.60;;;;;;5016596;28;20066;-73
2022/08/26 12:13:06;;;;;;;16.02;5.63;;;;;;;;;;5015115;28;20493;-72
2022/08/26 12:15:33;;;;;;;23.42;8.60;;;36.60;78.30;;;;;;5016677;28;20030;-72
2022/08/26 12:18:22;;;;;;;15.40;6.10;;;35.80;81.60;;;;;;5015131;28;20382;-74
2022/08/26 12:20:52;;;;;;;17.88;6.45;;;36.60;83.30;;;;;;5016260;28;20057;-69
2022/08/26 12:23:22;;;;;;;13.82;4.93;;;;;;;;;;5016415;28;20021;-69
2022/08/26 12:26:02;;;;;;;17.38;6.40;;;41.30;72.80;;;;;;5014828;28;20026;-70
2022/08/26 12:28:29;;;;;;;16.73;5.32;;;41.50;73.80;;;;;;5014982;28;20034;-71
2022/08/26 12:31:04;;;;;;;16.90;6.15;;;41.90;70.40;;;;;;5014720;28;20045;-71
2022/08/26 12:33:37;;;;;;;15.05;5.15;;;42.00;69.80;;;;;;5016021;28;20030;-69
2022/08/26 12:36:04;;;;;;;30.13;18.38;;;;;;;;;;5016216;28;20161;-70
2022/08/26 12:38:33;;;;;;;21.33;9.82;;;42.70;67.80;;;;;;5016163;28;20097;-73
2022/08/26 12:40:59;;;;;;;22.38;8.95;;;43.20;67.00;;;;;;5016017;28;20101;-71
2022/08/26 12:43:45;;;;;;;34.40;19.27;;;;;;;;;;5014664;28;20129;-73
2022/08/26 12:46:23;;;;;;;27.95;12.60;;;;;;;;;;5015810;28;20072;-73
2022/08/26 12:48:49;;;;;;;13.38;4.53;;;44.60;65.70;;;;;;5015811;28;20064;-68
2022/08/26 12:51:30;;;;;;;16.88;4.80;;;44.20;65.60;;;;;;5015783;28;20069;-69
2022/08/26 12:53:57;;;;;;;10.23;4.53;;;44.20;63.70;;;;;;5014548;28;20129;-69
2022/08/26 12:56:40;;;;;;;15.60;5.03;;;44.80;62.70;;;;;;5015886;28;20029;-72
2022/08/26 12:59:24;;;;;;;16.88;5.35;;;45.10;63.70;;;;;;5015846;28;20022;-73
2022/08/26 13:01:51;;;;;;;22.30;5.15;;;44.90;64.10;;;;;;5015880;28;20041;-69
2022/08/26 13:04:41;;;;;;;14.57;4.70;;;44.50;63.60;;;;;;5015671;28;20105;-70
2022/08/26 13:07:20;;;;;;;18.63;5.05;;;;;;;;;;5014171;28;20125;-70
2022/08/26 13:09:47;;;;;;;12.73;4.72;;;45.30;62.50;;;;;;5015393;28;20061;-69
2022/08/26 13:12:26;;;;;;;15.65;4.93;;;46.00;63.40;;;;;;5014298;28;20033;-72
2022/08/26 13:14:53;;;;;;;14.27;4.50;;;;;;;;;;5014159;28;20133;-65
2022/08/26 13:17:19;;;;;;;16.17;4.93;;;;;;;;;;5014041;28;20022;-67
2022/08/26 13:19:46;;;;;;;12.40;4.70;;;;;;;;;;5015286;28;20033;-67
2022/08/26 13:22:13;;;;;;;19.05;4.72;;;;;;;;;;5015361;28;20021;-70
2022/08/26 13:24:43;;;;;;;12.68;3.70;;;;;;;;;;5014749;28;20364;-69
2022/08/26 13:27:11;;;;;;;15.25;5.20;;;;;;;;;;5014950;28;20033;-70
2022/08/26 13:29:37;;;;;;;15.23;3.95;;;;;;;;;;5014715;28;20022;-68
2022/08/26 13:32:04;;;;;;;13.38;3.97;;;;;;;;;;5014844;28;20025;-65
2022/08/26 13:34:31;;;;;;;28.05;4.80;;;47.20;61.30;;;;;;5022758;28;20103;-67
2022/08/26 13:36:57;;;;;;;12.95;4.38;;;;;;;;;;5034729;28;20080;-68
2022/08/26 13:39:24;;;;;;;9.52;4.25;;;;;;;;;;5034764;28;20045;-68
2022/08/26 13:41:50;;;;;;;17.98;4.45;;;43.10;63.90;;;;;;5033338;28;20477;-66
2022/08/26 13:44:16;;;;;;;19.52;5.72;;;44.10;65.20;;;;;;5034942;28;20136;-67
2022/08/26 13:46:42;;;;;;;12.57;4.30;;;44.40;66.50;;;;;;5034436;28;20029;-70
2022/08/26 13:49:08;;;;;;;;;;;;;;;;;;5034925;28;20025;-69
2022/08/26 13:51:34;;;;;;;;;;;;;;;;;;5034875;28;19920;-68
2022/08/26 13:54:00;;;;;;;;;;;;;;;;;;5035156;28;19909;-67
2022/08/26 13:56:28;;;;;;;;;;;;;;;;;;5034893;28;20369;-69
2022/08/26 13:58:54;;;;;;;;;;;;;;;;;;5034802;28;20381;-70
2022/08/26 14:01:20;;;;;;;;;;;;;;;;;;5034499;28;19948;-69
2022/08/26 14:03:46;;;;;;;;;;;;;;;;;;5034489;28;19962;-69